Latest Weather Observations for Casterton

IDV60801

Issued at 11:02 am EDT Tuesday 23 December 2014 (issued every 30 minutes, with the page automatically refreshed every 10 minutes)

About weather observations | Map of weather stations | Latest weather observations for VIC | Other Formats
Station Details ID: 090182 Name: CASTERTON Lat: -37.58 Lon: 141.33 Height: 130.6 m
Data from the previous 72 hours. | See also: Recent months at Casterton
Date/Time
EDT
Temp
°C
App
Temp
°C
Dew
Point
Rel
Hum
%
Delta-T
°C
Wind Press
QNH
hPa
Press
MSL
hPa
Rain
since 9 am
mm
Dir
 
Spd
km/h
Gust
km/h
Spd
kts
Gust
kts
23/11:00am 16.8 15.8 16.5 98 0.2 SW 17 22 9 12 1011.2 - 0.0
23/10:30am 16.5 15.3 16.2 98 0.2 SW 17 24 9 13 1010.8 - 0.0
23/10:00am 16.2 15.7 15.9 98 0.2 SW 13 17 7 9 1010.6 - 0.0
23/09:30am 16.3 15.5 16.0 98 0.2 WSW 15 22 8 12 1010.4 - 0.0
23/09:00am 16.8 15.8 16.5 98 0.2 WSW 17 26 9 14 1010.2 1009.9 0.6
23/08:30am 15.8 14.0 15.6 99 0.1 WSW 19 26 10 14 1010.0 - 0.6
23/08:00am 15.6 14.5 15.4 99 0.1 WSW 15 20 8 11 1009.6 - 0.6
23/07:30am 15.4 14.3 15.2 99 0.1 WSW 15 20 8 11 1009.4 - 0.6
23/07:00am 15.8 15.6 15.6 99 0.1 W 11 17 6 9 1009.0 - 0.6
23/06:30am 16.1 15.2 15.9 99 0.1 W 15 19 8 10 1008.7 - 0.6
23/06:00am 16.5 16.1 16.3 99 0.1 W 13 17 7 9 1008.4 1008.1 0.6
23/05:30am 16.7 16.4 16.5 99 0.1 WNW 13 17 7 9 1008.3 - 0.2
23/05:00am 16.9 16.3 16.7 99 0.1 NW 15 20 8 11 1008.1 - 0.2
23/04:30am 16.9 17.5 16.7 99 0.1 NNW 9 13 5 7 1007.8 - 0.2
23/04:00am 16.9 17.1 16.7 99 0.1 N 11 15 6 8 1007.7 - 0.2
23/03:30am 16.9 19.1 16.6 98 0.2 CALM 0 6 0 3 1007.7 - 0.0
23/03:00am 16.9 18.8 16.6 98 0.2 NNE 2 6 1 3 1007.8 1007.5 0.0
23/02:30am 17.0 17.9 16.7 98 0.2 NNW 7 9 4 5 1008.1 - 0.0
23/02:00am 17.2 18.2 16.9 98 0.2 WNW 7 9 4 5 1008.5 - 0.0
23/01:30am 17.0 18.9 16.7 98 0.2 N 2 9 1 5 1008.3 - 0.0
23/01:00am 17.1 19.4 16.8 98 0.2 CALM 0 7 0 4 1008.4 - 0.0
23/12:30am 17.7 19.8 17.1 96 0.4 SW 2 7 1 4 1008.4 - 0.0
23/12:00am 17.9 19.0 17.1 95 0.5 SSW 7 11 4 6 1008.0 1007.7 0.0
 
Date/Time
EDT
Temp
°C
App
Temp
°C
Dew
Point
Rel
Hum
%
Delta-T
°C
Wind Press
QNH
hPa
Press
MSL
hPa
Rain
since 9 am
mm
Dir
 
Spd
km/h
Gust
km/h
Spd
kts
Gust
kts
22/11:30pm 18.2 19.0 17.2 94 0.6 SW 9 15 5 8 1008.0 - 0.0
22/11:00pm 18.7 19.8 17.0 90 1.0 S 7 9 4 5 1008.0 - 0.0
22/10:30pm 19.1 19.4 17.1 88 1.2 SW 11 15 6 8 1008.0 - 0.0
22/10:00pm 19.1 20.2 17.1 88 1.2 SSW 7 11 4 6 1007.8 - 0.0
22/09:30pm 19.3 20.1 17.4 89 1.2 SSW 9 11 5 6 1008.0 - 0.0
22/09:00pm 19.9 20.6 17.1 84 1.7 SW 9 11 5 6 1008.3 1008.0 0.0
22/08:30pm 21.1 22.0 16.7 76 2.7 SSW 7 11 4 6 1008.1 - 0.0
22/08:00pm 22.1 22.7 15.2 65 4.1 SW 6 6 3 3 1007.9 - 0.0
22/07:30pm 22.8 23.2 15.4 63 4.5 SSW 7 11 4 6 1007.6 - 0.0
22/07:00pm 23.4 23.2 14.7 58 5.2 SW 9 11 5 6 1007.4 - 0.0
22/06:30pm 24.0 23.2 14.1 54 5.9 WSW 11 15 6 8 1006.9 - 0.0
22/06:00pm 24.8 23.2 14.9 54 6.0 SW 17 24 9 13 1006.9 1006.6 0.0
22/05:30pm 26.2 23.9 13.0 44 7.7 WSW 17 24 9 13 1006.3 - 0.0
22/05:00pm 26.3 25.4 13.8 46 7.4 SW 11 17 6 9 1006.3 - 0.0
22/04:30pm 26.4 24.9 14.2 47 7.3 SW 15 20 8 11 1006.4 - 0.0
22/04:00pm 26.7 26.8 14.5 47 7.3 SW 7 11 4 6 1006.6 - 0.0
22/03:30pm 25.7 25.2 13.9 48 7.0 ENE 9 17 5 9 1006.4 - 0.0
22/03:00pm 25.0 22.5 14.2 51 6.4 E 20 26 11 14 1006.3 1006.0 0.0
22/02:30pm 24.4 23.4 14.5 54 5.9 SE 13 20 7 11 1007.3 - 0.0
22/02:00pm 23.6 22.8 14.0 55 5.7 S 11 17 6 9 1008.4 - 0.0
22/01:30pm 24.1 23.0 14.2 54 5.9 SSW 13 17 7 9 1008.9 - 0.0
22/01:00pm 22.6 21.5 14.2 59 4.9 SW 13 19 7 10 1009.0 - 0.0
22/12:30pm 21.8 19.8 13.9 61 4.6 SW 17 26 9 14 1009.0 - 0.0
22/12:00pm 22.0 20.6 13.4 58 5.0 SSE 13 20 7 11 1008.7 1008.4 0.0
22/11:30am 20.9 18.7 13.4 62 4.3 ESE 17 26 9 14 1008.7 - 0.0
22/11:00am 20.0 17.3 13.0 64 4.0 E 19 24 10 13 1008.8 - 0.0
22/10:30am 18.6 16.8 13.2 71 3.1 ENE 15 28 8 15 1009.4 - 0.0
22/10:00am 17.3 14.9 12.8 75 2.5 ESE 17 22 9 12 1009.4 - 0.0
22/09:30am 17.0 15.1 12.9 77 2.3 E 15 26 8 14 1009.4 - 0.0
22/09:00am 16.7 12.8 13.2 80 2.0 E 26 35 14 19 1009.2 1008.9 0.0
22/08:30am 16.2 11.6 13.5 84 1.5 E 30 39 16 21 1009.1 - 0.0
22/08:00am 16.0 13.2 13.3 84 1.5 E 20 32 11 17 1009.6 - 0.0
22/07:30am 15.6 11.7 13.4 87 1.2 E 26 37 14 20 1009.6 - 0.0
22/07:00am 15.4 12.0 13.6 89 1.0 E 24 33 13 18 1009.3 - 0.0
22/06:30am 15.1 11.0 13.8 92 0.7 ESE 28 39 15 21 1009.0 - 0.0
22/06:00am 14.5 13.4 14.2 98 0.2 SSE 13 26 7 14 1010.3 1010.0 0.0
22/05:30am 14.5 12.6 14.2 98 0.2 E 17 26 9 14 1010.7 - 0.0
22/05:00am 14.4 12.5 14.1 98 0.2 E 17 26 9 14 1010.2 - 0.0
22/04:30am 14.4 11.9 14.1 98 0.2 E 20 28 11 15 1010.4 - 0.0
22/04:00am 14.3 12.3 14.0 98 0.2 SE 17 24 9 13 1010.8 - 0.0
22/03:30am 14.4 11.5 14.1 98 0.2 ESE 22 37 12 20 1011.1 - 0.0
22/03:00am 14.4 11.5 13.9 97 0.3 ESE 22 33 12 18 1011.1 1010.8 0.0
22/02:30am 14.4 12.4 13.8 96 0.3 ESE 17 30 9 16 1011.7 - 0.0
22/02:00am 14.4 13.0 13.4 94 0.6 SE 13 19 7 10 1011.9 - 0.0
22/01:30am 14.4 12.3 13.6 95 0.4 ESE 17 24 9 13 1012.4 - 0.0
22/01:00am 14.3 12.6 13.5 95 0.4 SE 15 22 8 12 1013.0 - 0.0
22/12:30am 14.4 12.8 13.8 96 0.3 SE 15 20 8 11 1013.3 - 0.0
22/12:00am 14.5 12.9 13.9 96 0.3 SE 15 24 8 13 1013.8 1013.5 0.0
 
Date/Time
EDT
Temp
°C
App
Temp
°C
Dew
Point
Rel
Hum
%
Delta-T
°C
Wind Press
QNH
hPa
Press
MSL
hPa
Rain
since 9 am
mm
Dir
 
Spd
km/h
Gust
km/h
Spd
kts
Gust
kts
21/11:30pm 15.0 13.0 13.9 93 0.6 ESE 17 22 9 12 1013.7 - 0.0
21/11:00pm 15.3 12.3 13.8 91 0.8 SE 22 32 12 17 1013.9 - 0.0
21/10:30pm 15.3 13.6 13.5 89 1.0 ESE 15 22 8 12 1013.9 - 0.0
21/10:00pm 15.5 12.9 13.3 87 1.2 SE 19 28 10 15 1013.8 - 0.0
21/09:30pm 16.5 13.5 12.7 78 2.1 ESE 20 30 11 16 1013.7 - 0.0
21/09:00pm 18.3 14.9 11.1 63 3.9 SE 20 32 11 17 1013.1 1012.8 0.0
21/08:30pm 20.6 18.5 12.3 59 4.7 S 15 22 8 12 1012.6 - 0.0
21/08:00pm 22.7 19.8 12.3 52 5.9 S 19 28 10 15 1012.2 - 0.0
21/07:30pm 24.1 21.5 12.1 47 6.9 SSW 17 24 9 13 1012.0 - 0.0
21/07:00pm 25.5 22.2 10.9 40 8.2 S 19 26 10 14 1011.6 - 0.0
21/06:30pm 27.2 23.9 10.8 36 9.3 SSW 19 24 10 13 1011.5 - 0.0
21/06:00pm 28.3 24.9 10.5 33 10.1 SSW 19 32 10 17 1011.4 1011.1 0.0
21/05:30pm 30.0 27.4 12.0 33 10.6 SW 17 26 9 14 1011.4 - 0.0
21/05:00pm 30.7 27.6 11.6 31 11.2 SW 19 26 10 14 1011.5 - 0.0
21/04:30pm 29.7 26.6 11.7 33 10.5 SSW 19 32 10 17 1011.6 - 0.0
21/04:00pm 30.5 28.0 12.4 33 10.7 S 17 32 9 17 1011.7 - 0.0
21/03:30pm 29.4 26.8 11.9 34 10.2 SW 17 30 9 16 1011.9 - 0.0
21/03:00pm 29.9 27.0 12.8 35 10.2 WSW 20 32 11 17 1012.0 1011.7 0.0
21/02:30pm 31.8 29.3 13.5 32 11.1 SW 19 30 10 16 1012.1 - 0.0
21/02:00pm 31.0 28.3 12.8 32 10.9 SW 19 30 10 16 1012.4 - 0.0
21/01:30pm 30.6 27.0 13.0 34 10.5 SSW 24 37 13 20 1012.6 - 0.0
21/01:00pm 31.0 26.7 10.9 29 11.6 WSW 24 35 13 19 1012.5 - 0.0
21/12:30pm 32.1 27.7 9.0 24 13.0 W 22 32 12 17 1012.7 - 0.0
21/12:00pm 32.0 27.1 10.1 26 12.6 NW 26 39 14 21 1012.8 1012.5 0.0
21/11:30am 30.9 27.1 9.7 27 12.0 NW 20 33 11 18 1012.9 - 0.0
21/11:00am 29.6 25.9 10.2 30 11.0 NW 20 33 11 18 1013.1 - 0.0
21/10:30am 27.7 22.8 10.0 33 9.9 N 26 35 14 19 1013.1 - 0.0
21/10:00am 25.9 22.2 10.1 37 8.8 N 20 28 11 15 1013.1 - 0.0
21/09:30am 25.2 22.6 10.6 40 8.2 N 15 24 8 13 1013.2 - 0.0
21/09:00am 23.3 20.5 10.0 43 7.3 N 15 22 8 12 1013.2 1012.9 0.0
21/08:30am 21.7 20.0 12.5 56 5.2 NNE 13 17 7 9 1013.1 - 0.0
21/08:00am 18.9 18.3 12.4 66 3.6 NE 7 11 4 6 1013.1 - 0.0
21/07:30am 15.0 14.1 12.5 85 1.4 NE 9 11 5 6 1012.9 - 0.0
21/07:00am 11.5 10.7 11.2 98 0.2 NNE 6 9 3 5 1012.7 - 0.0
21/06:30am 9.8 8.6 9.5 98 0.2 NE 6 7 3 4 1012.5 - 0.0
21/06:00am 9.6 8.1 9.3 98 0.1 ENE 7 9 4 5 1012.4 1012.0 0.0
21/05:30am 9.7 8.3 9.4 98 0.1 ENE 7 9 4 5 1012.2 - 0.0
21/05:00am 9.8 8.0 9.5 98 0.2 ENE 9 11 5 6 1012.7 - 0.0
21/04:30am 9.9 8.7 9.6 98 0.2 E 6 7 3 4 1013.0 - 0.0
21/04:00am 10.8 9.3 10.5 98 0.2 E 9 15 5 8 1013.2 - 0.0
21/03:30am 11.3 9.9 11.0 98 0.2 E 9 15 5 8 1013.3 - 0.0
21/03:00am 11.7 10.1 11.4 98 0.2 E 11 15 6 8 1013.2 1012.9 0.0
21/02:30am 12.0 10.3 11.2 95 0.4 E 11 17 6 9 1013.4 - 0.0
21/02:00am 12.2 10.1 11.3 94 0.5 E 13 20 7 11 1013.8 - 0.0
21/01:30am 12.6 10.5 11.2 91 0.7 E 13 19 7 10 1014.4 - 0.0
21/01:00am 12.8 10.6 10.9 88 1.0 E 13 22 7 12 1014.8 - 0.0
21/12:30am 12.9 10.8 11.0 88 1.0 ESE 13 19 7 10 1015.2 - 0.0
21/12:00am 12.9 11.0 10.6 86 1.2 SE 11 17 6 9 1015.7 1015.4 0.0
 
Date/Time
EDT
Temp
°C
App
Temp
°C
Dew
Point
Rel
Hum
%
Delta-T
°C
Wind Press
QNH
hPa
Press
MSL
hPa
Rain
since 9 am
mm
Dir
 
Spd
km/h
Gust
km/h
Spd
kts
Gust
kts
20/11:30pm 13.3 11.5 10.8 85 1.3 SE 11 19 6 10 1016.0 - 0.0
20/11:00pm 13.4 11.9 10.4 82 1.6 SE 9 13 5 7 1016.4 - 0.0
20/10:30pm 14.1 12.4 9.9 76 2.2 SE 9 15 5 8 1016.5 - 0.0
20/10:00pm 15.3 13.0 10.5 73 2.5 SE 13 19 7 10 1016.5 - 0.0
20/09:30pm 15.9 13.5 10.2 69 3.0 S 13 17 7 9 1016.3 - 0.0
20/09:00pm 17.1 14.4 10.2 64 3.7 S 15 19 8 10 1016.2 1015.9 0.0
20/08:30pm 19.2 16.5 10.2 56 4.9 S 15 22 8 12 1016.1 - 0.0
20/08:00pm 21.0 17.9 10.2 50 5.9 S 17 26 9 14 1015.8 - 0.0
20/07:30pm 22.8 19.6 9.9 44 7.1 S 17 26 9 14 1015.5 - 0.0
20/07:00pm 24.0 20.4 9.9 41 7.8 S 19 26 10 14 1015.3 - 0.0
20/06:30pm 24.9 21.6 9.6 38 8.4 S 17 24 9 13 1015.1 - 0.0
20/06:00pm 25.7 23.0 10.3 38 8.6 S 15 24 8 13 1015.1 1014.8 0.0
20/05:30pm 25.8 22.6 10.0 37 8.8 SSW 17 30 9 16 1015.5 - 0.0
20/05:00pm 26.1 23.3 9.9 36 9.0 S 15 28 8 15 1015.6 - 0.0
20/04:30pm 26.9 23.4 10.2 35 9.4 S 19 28 10 15 1015.9 - 0.0
20/04:00pm 26.9 24.5 8.8 32 9.9 W 11 20 6 11 1016.1 - 0.0
20/03:30pm 26.4 22.7 9.3 34 9.4 S 19 26 10 14 1016.7 - 0.0
20/03:00pm 26.1 23.3 8.6 33 9.5 WSW 13 24 7 13 1017.1 1016.8 0.0
20/02:30pm 25.1 22.1 7.7 33 9.3 SSW 13 20 7 11 1017.5 - 0.0
20/02:00pm 25.1 21.4 9.4 37 8.6 SSW 19 28 10 15 1017.8 - 0.0
20/01:30pm 24.5 21.6 9.6 39 8.2 NW 15 24 8 13 1018.3 - 0.0
20/01:00pm 23.4 19.5 8.7 39 7.9 WNW 19 28 10 15 1018.6 - 0.0
20/12:30pm 22.9 20.0 9.7 43 7.2 WSW 15 24 8 13 1018.9 - 0.0
20/12:00pm 21.7 19.3 10.2 48 6.3 W 13 19 7 10 1019.0 1018.8 0.0
20/11:30am 21.3 19.0 10.5 50 5.9 W 13 24 7 13 1019.4 - 0.0

Other Formats:

Comma delimited format used in spreadsheet applications
http://www.bom.gov.au/fwo/IDV60801/IDV60801.95825.axf

JavaScript Object Notation format (JSON) in row-major order
http://www.bom.gov.au/fwo/IDV60801/IDV60801.95825.json